sensor_id;sensor_type;location;lat;lon;timestamp;P1;durP1;ratioP1;P2;durP2;ratioP2
8462;SDS011;4268;52.506;13.462;2023-04-01T00:01:09;5.90;;;5.50;;
8462;SDS011;4268;52.506;13.462;2023-04-01T00:03:39;9.80;;;9.30;;
8462;SDS011;4268;52.506;13.462;2023-04-01T00:06:04;5.87;;;5.47;;
8462;SDS011;4268;52.506;13.462;2023-04-01T00:08:30;6.37;;;5.90;;
8462;SDS011;4268;52.506;13.462;2023-04-01T00:10:56;5.97;;;5.57;;
8462;SDS011;4268;52.506;13.462;2023-04-01T00:13:23;6.50;;;6.07;;
8462;SDS011;4268;52.506;13.462;2023-04-01T00:15:50;6.63;;;6.23;;
8462;SDS011;4268;52.506;13.462;2023-04-01T00:18:16;6.50;;;6.00;;
8462;SDS011;4268;52.506;13.462;2023-04-01T00:20:45;12.43;;;11.63;;
8462;SDS011;4268;52.506;13.462;2023-04-01T00:23:12;6.03;;;5.53;;
8462;SDS011;4268;52.506;13.462;2023-04-01T00:25:38;6.00;;;5.50;;
8462;SDS011;4268;52.506;13.462;2023-04-01T00:28:03;6.07;;;5.63;;
8462;SDS011;4268;52.506;13.462;2023-04-01T00:30:29;5.83;;;5.33;;
8462;SDS011;4268;52.506;13.462;2023-04-01T00:32:54;5.93;;;5.47;;
8462;SDS011;4268;52.506;13.462;2023-04-01T00:35:20;5.77;;;5.27;;
8462;SDS011;4268;52.506;13.462;2023-04-01T00:37:47;6.40;;;5.90;;
8462;SDS011;4268;52.506;13.462;2023-04-01T00:40:24;6.10;;;5.60;;
8462;SDS011;4268;52.506;13.462;2023-04-01T00:42:52;7.47;;;6.87;;
8462;SDS011;4268;52.506;13.462;2023-04-01T00:45:34;6.50;;;6.00;;
8462;SDS011;4268;52.506;13.462;2023-04-01T00:48:46;6.23;;;5.63;;
8462;SDS011;4268;52.506;13.462;2023-04-01T00:51:09;5.97;;;5.57;;
8462;SDS011;4268;52.506;13.462;2023-04-01T00:53:40;6.10;;;5.60;;
8462;SDS011;4268;52.506;13.462;2023-04-01T00:58:39;5.60;;;5.17;;
8462;SDS011;4268;52.506;13.462;2023-04-01T01:01:09;5.63;;;5.23;;
8462;SDS011;4268;52.506;13.462;2023-04-01T01:03:35;6.17;;;5.73;;
8462;SDS011;4268;52.506;13.462;2023-04-01T01:06:05;5.40;;;4.90;;
8462;SDS011;4268;52.506;13.462;2023-04-01T01:09:05;5.27;;;4.87;;
8462;SDS011;4268;52.506;13.462;2023-04-01T01:12:01;4.87;;;4.47;;
8462;SDS011;4268;52.506;13.462;2023-04-01T01:17:44;5.03;;;4.50;;
8462;SDS011;4268;52.506;13.462;2023-04-01T01:20:21;4.70;;;4.33;;
8462;SDS011;4268;52.506;13.462;2023-04-01T01:23:35;4.73;;;4.20;;
8462;SDS011;4268;52.506;13.462;2023-04-01T01:34:50;6.73;;;6.13;;
8462;SDS011;4268;52.506;13.462;2023-04-01T01:37:23;5.50;;;5.07;;
8462;SDS011;4268;52.506;13.462;2023-04-01T01:39:55;6.27;;;5.70;;
8462;SDS011;4268;52.506;13.462;2023-04-01T01:42:25;5.50;;;5.10;;
8462;SDS011;4268;52.506;13.462;2023-04-01T01:44:52;5.03;;;4.63;;
8462;SDS011;4268;52.506;13.462;2023-04-01T01:47:20;6.13;;;4.80;;
8462;SDS011;4268;52.506;13.462;2023-04-01T01:49:47;5.20;;;4.80;;
8462;SDS011;4268;52.506;13.462;2023-04-01T01:52:13;5.10;;;4.80;;
8462;SDS011;4268;52.506;13.462;2023-04-01T01:54:48;4.90;;;4.50;;
8462;SDS011;4268;52.506;13.462;2023-04-01T01:57:15;4.73;;;4.33;;
8462;SDS011;4268;52.506;13.462;2023-04-01T01:59:42;5.83;;;5.40;;
8462;SDS011;4268;52.506;13.462;2023-04-01T02:02:10;4.43;;;4.03;;
8462;SDS011;4268;52.506;13.462;2023-04-01T02:04:39;4.30;;;4.00;;
8462;SDS011;4268;52.506;13.462;2023-04-01T02:07:09;5.10;;;4.03;;
8462;SDS011;4268;52.506;13.462;2023-04-01T02:09:45;4.60;;;4.20;;
8462;SDS011;4268;52.506;13.462;2023-04-01T02:12:12;4.23;;;3.90;;
8462;SDS011;4268;52.506;13.462;2023-04-01T02:14:43;4.23;;;3.90;;
8462;SDS011;4268;52.506;13.462;2023-04-01T02:17:21;4.37;;;4.00;;
8462;SDS011;4268;52.506;13.462;2023-04-01T02:19:52;4.40;;;4.10;;
8462;SDS011;4268;52.506;13.462;2023-04-01T02:22:23;4.17;;;3.77;;
8462;SDS011;4268;52.506;13.462;2023-04-01T02:24:52;4.00;;;3.70;;
8462;SDS011;4268;52.506;13.462;2023-04-01T02:27:22;4.77;;;4.27;;
8462;SDS011;4268;52.506;13.462;2023-04-01T02:29:48;4.13;;;3.83;;
8462;SDS011;4268;52.506;13.462;2023-04-01T02:32:15;4.10;;;3.80;;
8462;SDS011;4268;52.506;13.462;2023-04-01T02:34:42;4.23;;;3.93;;
8462;SDS011;4268;52.506;13.462;2023-04-01T02:37:08;4.17;;;3.80;;
8462;SDS011;4268;52.506;13.462;2023-04-01T02:39:35;5.30;;;4.10;;
8462;SDS011;4268;52.506;13.462;2023-04-01T02:42:00;4.10;;;3.80;;
8462;SDS011;4268;52.506;13.462;2023-04-01T02:44:26;3.97;;;3.73;;
8462;SDS011;4268;52.506;13.462;2023-04-01T02:46:51;3.70;;;3.50;;
8462;SDS011;4268;52.506;13.462;2023-04-01T02:49:17;4.30;;;4.00;;
8462;SDS011;4268;52.506;13.462;2023-04-01T02:51:43;4.13;;;3.73;;
8462;SDS011;4268;52.506;13.462;2023-04-01T02:54:08;4.27;;;3.97;;
8462;SDS011;4268;52.506;13.462;2023-04-01T02:56:34;4.53;;;4.13;;
8462;SDS011;4268;52.506;13.462;2023-04-01T02:58:59;4.33;;;4.00;;
8462;SDS011;4268;52.506;13.462;2023-04-01T03:01:25;4.70;;;4.30;;
8462;SDS011;4268;52.506;13.462;2023-04-01T03:03:50;4.60;;;4.30;;
8462;SDS011;4268;52.506;13.462;2023-04-01T03:06:16;4.53;;;4.13;;
8462;SDS011;4268;52.506;13.462;2023-04-01T03:08:42;4.73;;;4.43;;
8462;SDS011;4268;52.506;13.462;2023-04-01T03:11:08;5.10;;;4.70;;
8462;SDS011;4268;52.506;13.462;2023-04-01T03:13:34;5.00;;;4.60;;
8462;SDS011;4268;52.506;13.462;2023-04-01T03:16:00;5.67;;;5.17;;
8462;SDS011;4268;52.506;13.462;2023-04-01T03:18:26;6.00;;;5.53;;
8462;SDS011;4268;52.506;13.462;2023-04-01T03:20:52;6.10;;;5.60;;
8462;SDS011;4268;52.506;13.462;2023-04-01T03:23:17;6.00;;;5.60;;
8462;SDS011;4268;52.506;13.462;2023-04-01T03:25:45;6.13;;;5.53;;
8462;SDS011;4268;52.506;13.462;2023-04-01T03:28:11;5.80;;;5.30;;
8462;SDS011;4268;52.506;13.462;2023-04-01T03:30:38;4.93;;;4.63;;
8462;SDS011;4268;52.506;13.462;2023-04-01T03:33:03;5.63;;;4.90;;
8462;SDS011;4268;52.506;13.462;2023-04-01T03:35:29;10.20;;;9.60;;
8462;SDS011;4268;52.506;13.462;2023-04-01T03:37:54;5.07;;;4.70;;
8462;SDS011;4268;52.506;13.462;2023-04-01T03:40:20;5.33;;;4.93;;
8462;SDS011;4268;52.506;13.462;2023-04-01T03:42:46;5.17;;;4.70;;
8462;SDS011;4268;52.506;13.462;2023-04-01T03:45:12;5.10;;;4.70;;
8462;SDS011;4268;52.506;13.462;2023-04-01T03:47:38;5.13;;;4.63;;
8462;SDS011;4268;52.506;13.462;2023-04-01T03:50:04;4.90;;;4.60;;
8462;SDS011;4268;52.506;13.462;2023-04-01T03:52:31;5.53;;;5.00;;
8462;SDS011;4268;52.506;13.462;2023-04-01T03:54:57;4.40;;;4.10;;
8462;SDS011;4268;52.506;13.462;2023-04-01T03:57:22;5.07;;;4.67;;
8462;SDS011;4268;52.506;13.462;2023-04-01T03:59:48;4.67;;;4.20;;
8462;SDS011;4268;52.506;13.462;2023-04-01T04:02:13;4.60;;;4.30;;
8462;SDS011;4268;52.506;13.462;2023-04-01T04:04:39;4.70;;;4.37;;
8462;SDS011;4268;52.506;13.462;2023-04-01T04:07:05;5.20;;;4.70;;
8462;SDS011;4268;52.506;13.462;2023-04-01T04:09:31;4.57;;;4.17;;
8462;SDS011;4268;52.506;13.462;2023-04-01T04:11:58;4.77;;;4.47;;
8462;SDS011;4268;52.506;13.462;2023-04-01T04:14:24;4.83;;;4.43;;
8462;SDS011;4268;52.506;13.462;2023-04-01T04:16:49;4.73;;;4.33;;
8462;SDS011;4268;52.506;13.462;2023-04-01T04:19:15;4.60;;;4.30;;
8462;SDS011;4268;52.506;13.462;2023-04-01T04:21:41;4.93;;;4.47;;
8462;SDS011;4268;52.506;13.462;2023-04-01T04:24:06;5.10;;;4.70;;
8462;SDS011;4268;52.506;13.462;2023-04-01T04:26:33;4.80;;;4.40;;
8462;SDS011;4268;52.506;13.462;2023-04-01T04:28:58;4.60;;;4.20;;
8462;SDS011;4268;52.506;13.462;2023-04-01T04:31:25;4.40;;;4.00;;
8462;SDS011;4268;52.506;13.462;2023-04-01T04:33:51;4.60;;;4.20;;
8462;SDS011;4268;52.506;13.462;2023-04-01T04:36:17;4.60;;;4.27;;
8462;SDS011;4268;52.506;13.462;2023-04-01T04:38:44;4.67;;;4.27;;
8462;SDS011;4268;52.506;13.462;2023-04-01T04:41:10;4.73;;;4.33;;
8462;SDS011;4268;52.506;13.462;2023-04-01T04:43:37;4.70;;;4.30;;
8462;SDS011;4268;52.506;13.462;2023-04-01T04:46:06;5.53;;;4.97;;
8462;SDS011;4268;52.506;13.462;2023-04-01T04:48:33;5.40;;;4.97;;
8462;SDS011;4268;52.506;13.462;2023-04-01T04:50:58;5.40;;;4.90;;
8462;SDS011;4268;52.506;13.462;2023-04-01T04:53:24;4.83;;;4.53;;
8462;SDS011;4268;52.506;13.462;2023-04-01T04:55:51;5.10;;;4.60;;
8462;SDS011;4268;52.506;13.462;2023-04-01T04:58:16;5.30;;;4.80;;
8462;SDS011;4268;52.506;13.462;2023-04-01T05:00:42;4.90;;;4.60;;
8462;SDS011;4268;52.506;13.462;2023-04-01T05:03:08;6.63;;;6.13;;
8462;SDS011;4268;52.506;13.462;2023-04-01T05:05:34;5.10;;;4.70;;
8462;SDS011;4268;52.506;13.462;2023-04-01T05:08:00;5.80;;;5.30;;
8462;SDS011;4268;52.506;13.462;2023-04-01T05:10:26;5.47;;;5.07;;
8462;SDS011;4268;52.506;13.462;2023-04-01T05:12:52;5.50;;;5.00;;
8462;SDS011;4268;52.506;13.462;2023-04-01T05:15:18;5.10;;;4.70;;
8462;SDS011;4268;52.506;13.462;2023-04-01T05:17:43;5.90;;;4.93;;
8462;SDS011;4268;52.506;13.462;2023-04-01T05:20:11;5.50;;;5.00;;
8462;SDS011;4268;52.506;13.462;2023-04-01T05:22:37;4.90;;;4.50;;
8462;SDS011;4268;52.506;13.462;2023-04-01T05:25:03;5.10;;;4.70;;
8462;SDS011;4268;52.506;13.462;2023-04-01T05:27:29;5.30;;;4.80;;
8462;SDS011;4268;52.506;13.462;2023-04-01T05:29:54;4.87;;;4.50;;
8462;SDS011;4268;52.506;13.462;2023-04-01T05:32:20;4.83;;;4.43;;
8462;SDS011;4268;52.506;13.462;2023-04-01T05:34:46;5.00;;;4.50;;
8462;SDS011;4268;52.506;13.462;2023-04-01T05:37:14;4.97;;;4.30;;
8462;SDS011;4268;52.506;13.462;2023-04-01T05:39:40;5.30;;;4.83;;
8462;SDS011;4268;52.506;13.462;2023-04-01T05:42:06;4.60;;;4.23;;
8462;SDS011;4268;52.506;13.462;2023-04-01T05:44:32;4.70;;;4.30;;
8462;SDS011;4268;52.506;13.462;2023-04-01T05:46:58;5.53;;;4.60;;
8462;SDS011;4268;52.506;13.462;2023-04-01T05:49:23;5.07;;;4.60;;
8462;SDS011;4268;52.506;13.462;2023-04-01T05:51:49;5.40;;;4.90;;
8462;SDS011;4268;52.506;13.462;2023-04-01T05:54:16;7.47;;;6.83;;
8462;SDS011;4268;52.506;13.462;2023-04-01T05:56:41;5.93;;;5.43;;
8462;SDS011;4268;52.506;13.462;2023-04-01T05:59:09;5.20;;;4.70;;
8462;SDS011;4268;52.506;13.462;2023-04-01T06:01:36;5.20;;;4.70;;
8462;SDS011;4268;52.506;13.462;2023-04-01T06:04:01;5.53;;;5.03;;
8462;SDS011;4268;52.506;13.462;2023-04-01T06:06:28;5.23;;;4.73;;
8462;SDS011;4268;52.506;13.462;2023-04-01T06:08:56;5.70;;;5.10;;
8462;SDS011;4268;52.506;13.462;2023-04-01T06:11:26;5.10;;;4.70;;
8462;SDS011;4268;52.506;13.462;2023-04-01T06:21:50;5.73;;;5.30;;
8462;SDS011;4268;52.506;13.462;2023-04-01T06:38:38;5.30;;;4.80;;
8462;SDS011;4268;52.506;13.462;2023-04-01T06:41:26;7.43;;;5.70;;
8462;SDS011;4268;52.506;13.462;2023-04-01T06:44:28;6.30;;;5.77;;
8462;SDS011;4268;52.506;13.462;2023-04-01T06:47:18;6.40;;;5.90;;
8462;SDS011;4268;52.506;13.462;2023-04-01T06:53:31;6.27;;;5.77;;
8462;SDS011;4268;52.506;13.462;2023-04-01T06:55:32;5.50;;;5.10;;
8462;SDS011;4268;52.506;13.462;2023-04-01T06:58:11;6.07;;;5.57;;
8462;SDS011;4268;52.506;13.462;2023-04-01T07:00:46;5.93;;;5.43;;
8462;SDS011;4268;52.506;13.462;2023-04-01T07:03:21;6.03;;;5.50;;
8462;SDS011;4268;52.506;13.462;2023-04-01T07:05:56;6.20;;;5.60;;
8462;SDS011;4268;52.506;13.462;2023-04-01T07:08:26;6.23;;;5.63;;
8462;SDS011;4268;52.506;13.462;2023-04-01T07:10:56;6.17;;;5.67;;
8462;SDS011;4268;52.506;13.462;2023-04-01T07:16:07;6.60;;;6.00;;
8462;SDS011;4268;52.506;13.462;2023-04-01T07:18:52;6.17;;;5.57;;
8462;SDS011;4268;52.506;13.462;2023-04-01T07:23:57;7.00;;;6.13;;
8462;SDS011;4268;52.506;13.462;2023-04-01T07:26:28;7.20;;;6.50;;
8462;SDS011;4268;52.506;13.462;2023-04-01T07:28:53;6.97;;;6.37;;
8462;SDS011;4268;52.506;13.462;2023-04-01T07:34:28;6.80;;;6.20;;
8462;SDS011;4268;52.506;13.462;2023-04-01T07:37:06;6.40;;;5.90;;
8462;SDS011;4268;52.506;13.462;2023-04-01T07:39:51;6.33;;;5.67;;
8462;SDS011;4268;52.506;13.462;2023-04-01T07:42:30;6.60;;;6.10;;
8462;SDS011;4268;52.506;13.462;2023-04-01T07:45:27;6.37;;;5.90;;
8462;SDS011;4268;52.506;13.462;2023-04-01T07:51:03;7.13;;;6.00;;
8462;SDS011;4268;52.506;13.462;2023-04-01T07:53:44;6.80;;;6.20;;
8462;SDS011;4268;52.506;13.462;2023-04-01T07:56:19;6.87;;;6.00;;
8462;SDS011;4268;52.506;13.462;2023-04-01T07:58:50;6.53;;;5.93;;
8462;SDS011;4268;52.506;13.462;2023-04-01T08:04:17;6.60;;;6.00;;
8462;SDS011;4268;52.506;13.462;2023-04-01T08:07:07;6.50;;;5.90;;
8462;SDS011;4268;52.506;13.462;2023-04-01T08:18:10;6.50;;;5.90;;
8462;SDS011;4268;52.506;13.462;2023-04-01T08:20:58;5.70;;;5.30;;
8462;SDS011;4268;52.506;13.462;2023-04-01T08:23:30;4.53;;;4.23;;
8462;SDS011;4268;52.506;13.462;2023-04-01T08:28:39;7.10;;;6.60;;
8462;SDS011;4268;52.506;13.462;2023-04-01T08:31:14;7.67;;;7.07;;
8462;SDS011;4268;52.506;13.462;2023-04-01T08:33:44;7.43;;;6.93;;
8462;SDS011;4268;52.506;13.462;2023-04-01T08:36:14;8.27;;;7.57;;
8462;SDS011;4268;52.506;13.462;2023-04-01T08:41:30;7.33;;;6.70;;
8462;SDS011;4268;52.506;13.462;2023-04-01T08:44:26;8.13;;;7.53;;
8462;SDS011;4268;52.506;13.462;2023-04-01T08:47:09;8.20;;;7.50;;
8462;SDS011;4268;52.506;13.462;2023-04-01T08:50:19;7.77;;;7.17;;
8462;SDS011;4268;52.506;13.462;2023-04-01T08:55:51;8.93;;;8.23;;
8462;SDS011;4268;52.506;13.462;2023-04-01T08:58:37;9.63;;;8.83;;
8462;SDS011;4268;52.506;13.462;2023-04-01T09:03:58;9.03;;;8.37;;
8462;SDS011;4268;52.506;13.462;2023-04-01T09:09:44;9.43;;;8.53;;
8462;SDS011;4268;52.506;13.462;2023-04-01T09:32:10;8.10;;;7.47;;
8462;SDS011;4268;52.506;13.462;2023-04-01T09:40:31;9.60;;;8.80;;
8462;SDS011;4268;52.506;13.462;2023-04-01T09:43:21;8.40;;;7.80;;
8462;SDS011;4268;52.506;13.462;2023-04-01T09:46:14;11.83;;;11.03;;
8462;SDS011;4268;52.506;13.462;2023-04-01T10:03:31;8.80;;;8.20;;
8462;SDS011;4268;52.506;13.462;2023-04-01T10:09:44;9.40;;;8.70;;
8462;SDS011;4268;52.506;13.462;2023-04-01T10:14:36;9.33;;;8.63;;
8462;SDS011;4268;52.506;13.462;2023-04-01T10:26:09;11.33;;;10.47;;
8462;SDS011;4268;52.506;13.462;2023-04-01T10:36:58;8.63;;;8.03;;
8462;SDS011;4268;52.506;13.462;2023-04-01T10:48:07;7.77;;;7.27;;
8462;SDS011;4268;52.506;13.462;2023-04-01T10:51:04;7.53;;;7.03;;
8462;SDS011;4268;52.506;13.462;2023-04-01T10:56:49;7.10;;;6.57;;
8462;SDS011;4268;52.506;13.462;2023-04-01T11:05:20;5.73;;;5.33;;
8462;SDS011;4268;52.506;13.462;2023-04-01T11:11:27;4.90;;;4.60;;
8462;SDS011;4268;52.506;13.462;2023-04-01T11:16:56;4.80;;;4.50;;
8462;SDS011;4268;52.506;13.462;2023-04-01T11:19:56;4.37;;;4.07;;
8462;SDS011;4268;52.506;13.462;2023-04-01T11:22:32;4.23;;;3.97;;
8462;SDS011;4268;52.506;13.462;2023-04-01T11:42:28;4.37;;;4.07;;
8462;SDS011;4268;52.506;13.462;2023-04-01T11:50:45;4.50;;;4.20;;
8462;SDS011;4268;52.506;13.462;2023-04-01T11:59:26;4.83;;;4.43;;
8462;SDS011;4268;52.506;13.462;2023-04-01T12:02:08;5.17;;;4.77;;
8462;SDS011;4268;52.506;13.462;2023-04-01T12:10:18;4.90;;;4.60;;
8462;SDS011;4268;52.506;13.462;2023-04-01T12:16:03;6.30;;;5.90;;
8462;SDS011;4268;52.506;13.462;2023-04-01T12:18:46;6.50;;;6.00;;
8462;SDS011;4268;52.506;13.462;2023-04-01T12:21:41;5.70;;;5.30;;
8462;SDS011;4268;52.506;13.462;2023-04-01T12:24:36;5.80;;;5.40;;
8462;SDS011;4268;52.506;13.462;2023-04-01T12:29:59;5.80;;;5.40;;
8462;SDS011;4268;52.506;13.462;2023-04-01T12:38:22;5.40;;;4.90;;
8462;SDS011;4268;52.506;13.462;2023-04-01T12:41:09;6.20;;;5.80;;
8462;SDS011;4268;52.506;13.462;2023-04-01T12:49:15;5.97;;;5.57;;
8462;SDS011;4268;52.506;13.462;2023-04-01T12:55:14;5.23;;;4.83;;
8462;SDS011;4268;52.506;13.462;2023-04-01T13:00:46;6.23;;;5.80;;
8462;SDS011;4268;52.506;13.462;2023-04-01T13:03:42;6.83;;;6.27;;
8462;SDS011;4268;52.506;13.462;2023-04-01T13:11:57;9.33;;;8.50;;
8462;SDS011;4268;52.506;13.462;2023-04-01T13:17:50;8.40;;;7.80;;
8462;SDS011;4268;52.506;13.462;2023-04-01T13:20:49;8.43;;;7.83;;
8462;SDS011;4268;52.506;13.462;2023-04-01T13:23:45;7.50;;;7.00;;
8462;SDS011;4268;52.506;13.462;2023-04-01T13:27:06;8.43;;;7.83;;
8462;SDS011;4268;52.506;13.462;2023-04-01T13:32:29;7.00;;;6.50;;
8462;SDS011;4268;52.506;13.462;2023-04-01T13:35:07;6.23;;;5.83;;
8462;SDS011;4268;52.506;13.462;2023-04-01T13:38:04;6.30;;;5.90;;
8462;SDS011;4268;52.506;13.462;2023-04-01T13:41:00;6.17;;;5.77;;
8462;SDS011;4268;52.506;13.462;2023-04-01T13:43:35;6.80;;;6.30;;
8462;SDS011;4268;52.506;13.462;2023-04-01T13:51:48;9.43;;;8.73;;
8462;SDS011;4268;52.506;13.462;2023-04-01T13:54:37;8.90;;;8.30;;
8462;SDS011;4268;52.506;13.462;2023-04-01T13:57:22;9.60;;;8.90;;
8462;SDS011;4268;52.506;13.462;2023-04-01T13:59:58;8.50;;;7.90;;
8462;SDS011;4268;52.506;13.462;2023-04-01T14:02:59;9.33;;;8.63;;
8462;SDS011;4268;52.506;13.462;2023-04-01T14:06:00;8.83;;;8.13;;
8462;SDS011;4268;52.506;13.462;2023-04-01T14:11:33;8.93;;;8.33;;
8462;SDS011;4268;52.506;13.462;2023-04-01T14:14:17;8.67;;;7.97;;
8462;SDS011;4268;52.506;13.462;2023-04-01T14:17:16;8.23;;;7.63;;
8462;SDS011;4268;52.506;13.462;2023-04-01T14:25:55;7.80;;;7.10;;
8462;SDS011;4268;52.506;13.462;2023-04-01T14:28:44;7.97;;;7.40;;
8462;SDS011;4268;52.506;13.462;2023-04-01T14:31:27;8.87;;;8.20;;
8462;SDS011;4268;52.506;13.462;2023-04-01T14:34:15;8.50;;;7.80;;
8462;SDS011;4268;52.506;13.462;2023-04-01T14:45:08;8.20;;;7.60;;
8462;SDS011;4268;52.506;13.462;2023-04-01T14:50:47;8.30;;;7.70;;
8462;SDS011;4268;52.506;13.462;2023-04-01T14:53:23;7.83;;;7.33;;
8462;SDS011;4268;52.506;13.462;2023-04-01T14:55:53;7.40;;;6.90;;
8462;SDS011;4268;52.506;13.462;2023-04-01T14:58:22;7.87;;;7.27;;
8462;SDS011;4268;52.506;13.462;2023-04-01T15:00:55;7.83;;;7.33;;
8462;SDS011;4268;52.506;13.462;2023-04-01T15:36:44;7.33;;;6.73;;
8462;SDS011;4268;52.506;13.462;2023-04-01T15:39:43;7.37;;;6.87;;
8462;SDS011;4268;52.506;13.462;2023-04-01T15:50:38;5.60;;;5.20;;
8462;SDS011;4268;52.506;13.462;2023-04-01T15:53:35;5.63;;;5.23;;
8462;SDS011;4268;52.506;13.462;2023-04-01T16:07:04;6.70;;;6.30;;
8462;SDS011;4268;52.506;13.462;2023-04-01T16:09:47;7.67;;;7.17;;
8462;SDS011;4268;52.506;13.462;2023-04-01T16:15:25;9.43;;;8.83;;
8462;SDS011;4268;52.506;13.462;2023-04-01T16:18:18;8.30;;;7.60;;
8462;SDS011;4268;52.506;13.462;2023-04-01T16:21:02;7.90;;;7.30;;
8462;SDS011;4268;52.506;13.462;2023-04-01T16:26:15;7.93;;;7.30;;
8462;SDS011;4268;52.506;13.462;2023-04-01T16:28:52;7.20;;;6.70;;
8462;SDS011;4268;52.506;13.462;2023-04-01T16:34:10;7.33;;;6.83;;
8462;SDS011;4268;52.506;13.462;2023-04-01T16:36:59;9.83;;;9.20;;
8462;SDS011;4268;52.506;13.462;2023-04-01T16:39:34;7.20;;;6.60;;
8462;SDS011;4268;52.506;13.462;2023-04-01T16:42:24;7.07;;;6.57;;
8462;SDS011;4268;52.506;13.462;2023-04-01T16:47:40;7.00;;;6.50;;
8462;SDS011;4268;52.506;13.462;2023-04-01T16:55:48;6.50;;;6.00;;
8462;SDS011;4268;52.506;13.462;2023-04-01T16:58:36;7.03;;;6.53;;
8462;SDS011;4268;52.506;13.462;2023-04-01T17:01:04;7.37;;;6.80;;
8462;SDS011;4268;52.506;13.462;2023-04-01T17:03:39;6.87;;;6.33;;
8462;SDS011;4268;52.506;13.462;2023-04-01T17:06:18;7.57;;;6.87;;
8462;SDS011;4268;52.506;13.462;2023-04-01T17:12:02;7.50;;;7.00;;
8462;SDS011;4268;52.506;13.462;2023-04-01T17:15:07;7.20;;;6.60;;
8462;SDS011;4268;52.506;13.462;2023-04-01T17:17:47;7.40;;;6.80;;
8462;SDS011;4268;52.506;13.462;2023-04-01T17:23:34;7.10;;;6.50;;
8462;SDS011;4268;52.506;13.462;2023-04-01T17:28:57;7.87;;;7.10;;
8462;SDS011;4268;52.506;13.462;2023-04-01T17:34:38;8.00;;;7.27;;
8462;SDS011;4268;52.506;13.462;2023-04-01T17:37:23;7.27;;;6.77;;
8462;SDS011;4268;52.506;13.462;2023-04-01T17:40:00;7.10;;;6.53;;
8462;SDS011;4268;52.506;13.462;2023-04-01T17:42:43;6.90;;;6.40;;
8462;SDS011;4268;52.506;13.462;2023-04-01T17:48:17;8.83;;;8.23;;
8462;SDS011;4268;52.506;13.462;2023-04-01T17:59:31;8.00;;;7.30;;
8462;SDS011;4268;52.506;13.462;2023-04-01T18:02:21;7.63;;;7.07;;
8462;SDS011;4268;52.506;13.462;2023-04-01T18:05:16;7.27;;;6.67;;
8462;SDS011;4268;52.506;13.462;2023-04-01T18:10:18;7.63;;;7.03;;
8462;SDS011;4268;52.506;13.462;2023-04-01T18:15:53;7.77;;;7.20;;
8462;SDS011;4268;52.506;13.462;2023-04-01T18:21:32;10.63;;;9.80;;
8462;SDS011;4268;52.506;13.462;2023-04-01T18:24:54;7.00;;;6.40;;
8462;SDS011;4268;52.506;13.462;2023-04-01T18:27:04;9.67;;;8.97;;
8462;SDS011;4268;52.506;13.462;2023-04-01T18:29:59;7.30;;;6.70;;
8462;SDS011;4268;52.506;13.462;2023-04-01T18:35:27;7.13;;;6.53;;
8462;SDS011;4268;52.506;13.462;2023-04-01T18:38:04;6.73;;;6.23;;
8462;SDS011;4268;52.506;13.462;2023-04-01T18:40:50;7.27;;;6.77;;
8462;SDS011;4268;52.506;13.462;2023-04-01T18:52:17;7.77;;;7.00;;
8462;SDS011;4268;52.506;13.462;2023-04-01T19:00:13;9.23;;;8.60;;
8462;SDS011;4268;52.506;13.462;2023-04-01T19:03:07;7.30;;;6.70;;
8462;SDS011;4268;52.506;13.462;2023-04-01T19:05:55;7.00;;;6.50;;
8462;SDS011;4268;52.506;13.462;2023-04-01T19:08:30;7.73;;;7.03;;
8462;SDS011;4268;52.506;13.462;2023-04-01T19:10:59;7.47;;;6.87;;
8462;SDS011;4268;52.506;13.462;2023-04-01T19:19:38;13.00;;;12.10;;
8462;SDS011;4268;52.506;13.462;2023-04-01T19:25:25;8.70;;;7.90;;
8462;SDS011;4268;52.506;13.462;2023-04-01T19:33:26;8.33;;;7.63;;
8462;SDS011;4268;52.506;13.462;2023-04-01T19:45:30;8.40;;;7.67;;
8462;SDS011;4268;52.506;13.462;2023-04-01T19:48:25;8.77;;;8.03;;
8462;SDS011;4268;52.506;13.462;2023-04-01T19:53:59;10.83;;;8.87;;
8462;SDS011;4268;52.506;13.462;2023-04-01T19:56:44;10.33;;;9.43;;
8462;SDS011;4268;52.506;13.462;2023-04-01T19:59:30;11.80;;;9.47;;
8462;SDS011;4268;52.506;13.462;2023-04-01T20:04:53;9.73;;;8.77;;
8462;SDS011;4268;52.506;13.462;2023-04-01T20:10:01;9.40;;;8.60;;
8462;SDS011;4268;52.506;13.462;2023-04-01T20:12:47;9.30;;;8.03;;
8462;SDS011;4268;52.506;13.462;2023-04-01T20:18:12;9.27;;;8.43;;
8462;SDS011;4268;52.506;13.462;2023-04-01T20:20:50;8.80;;;8.00;;
8462;SDS011;4268;52.506;13.462;2023-04-01T20:23:38;9.63;;;8.73;;
8462;SDS011;4268;52.506;13.462;2023-04-01T20:26:08;9.17;;;8.37;;
8462;SDS011;4268;52.506;13.462;2023-04-01T20:36:26;9.80;;;8.90;;
8462;SDS011;4268;52.506;13.462;2023-04-01T20:41:40;9.37;;;8.20;;
8462;SDS011;4268;52.506;13.462;2023-04-01T20:44:09;8.83;;;7.90;;
8462;SDS011;4268;52.506;13.462;2023-04-01T20:54:41;8.70;;;7.90;;
8462;SDS011;4268;52.506;13.462;2023-04-01T20:57:21;9.23;;;8.23;;
8462;SDS011;4268;52.506;13.462;2023-04-01T21:08:16;8.43;;;7.73;;
8462;SDS011;4268;52.506;13.462;2023-04-01T21:13:36;8.80;;;7.70;;
8462;SDS011;4268;52.506;13.462;2023-04-01T21:16:10;9.23;;;8.47;;
8462;SDS011;4268;52.506;13.462;2023-04-01T21:24:55;8.97;;;8.17;;
8462;SDS011;4268;52.506;13.462;2023-04-01T21:27:39;7.83;;;7.07;;
8462;SDS011;4268;52.506;13.462;2023-04-01T21:30:18;9.10;;;8.40;;
8462;SDS011;4268;52.506;13.462;2023-04-01T21:41:24;6.77;;;6.20;;
8462;SDS011;4268;52.506;13.462;2023-04-01T21:50:05;6.27;;;5.77;;
8462;SDS011;4268;52.506;13.462;2023-04-01T22:07:09;5.93;;;5.40;;
8462;SDS011;4268;52.506;13.462;2023-04-01T22:12:38;7.57;;;5.77;;
8462;SDS011;4268;52.506;13.462;2023-04-01T22:15:25;8.13;;;7.37;;
8462;SDS011;4268;52.506;13.462;2023-04-01T22:18:19;6.20;;;5.70;;
8462;SDS011;4268;52.506;13.462;2023-04-01T22:20:58;8.63;;;7.83;;
8462;SDS011;4268;52.506;13.462;2023-04-01T22:23:56;5.80;;;5.30;;
8462;SDS011;4268;52.506;13.462;2023-04-01T22:31:53;6.43;;;5.83;;
8462;SDS011;4268;52.506;13.462;2023-04-01T22:34:30;5.80;;;5.30;;
8462;SDS011;4268;52.506;13.462;2023-04-01T22:40:36;6.00;;;5.37;;
8462;SDS011;4268;52.506;13.462;2023-04-01T22:43:25;5.47;;;4.97;;
8462;SDS011;4268;52.506;13.462;2023-04-01T22:46:03;5.53;;;5.03;;
8462;SDS011;4268;52.506;13.462;2023-04-01T22:48:41;5.10;;;4.70;;
8462;SDS011;4268;52.506;13.462;2023-04-01T22:51:42;5.20;;;4.70;;
8462;SDS011;4268;52.506;13.462;2023-04-01T22:57:28;5.10;;;4.70;;
8462;SDS011;4268;52.506;13.462;2023-04-01T23:00:15;8.17;;;7.67;;
8462;SDS011;4268;52.506;13.462;2023-04-01T23:03:00;5.33;;;4.90;;
8462;SDS011;4268;52.506;13.462;2023-04-01T23:05:32;5.10;;;4.60;;
8462;SDS011;4268;52.506;13.462;2023-04-01T23:08:20;4.83;;;4.43;;
8462;SDS011;4268;52.506;13.462;2023-04-01T23:10:57;5.00;;;4.60;;
8462;SDS011;4268;52.506;13.462;2023-04-01T23:13:29;10.83;;;10.13;;
8462;SDS011;4268;52.506;13.462;2023-04-01T23:15:59;5.37;;;4.87;;
8462;SDS011;4268;52.506;13.462;2023-04-01T23:21:18;4.50;;;4.20;;
8462;SDS011;4268;52.506;13.462;2023-04-01T23:24:00;4.90;;;4.50;;
8462;SDS011;4268;52.506;13.462;2023-04-01T23:27:32;7.53;;;7.03;;
8462;SDS011;4268;52.506;13.462;2023-04-01T23:29:37;4.80;;;4.40;;
8462;SDS011;4268;52.506;13.462;2023-04-01T23:32:05;5.03;;;4.63;;
8462;SDS011;4268;52.506;13.462;2023-04-01T23:34:38;5.37;;;4.33;;
8462;SDS011;4268;52.506;13.462;2023-04-01T23:37:05;6.67;;;6.27;;
8462;SDS011;4268;52.506;13.462;2023-04-01T23:39:41;5.10;;;4.60;;
8462;SDS011;4268;52.506;13.462;2023-04-01T23:42:27;7.00;;;6.30;;
8462;SDS011;4268;52.506;13.462;2023-04-01T23:44:56;5.57;;;5.10;;
8462;SDS011;4268;52.506;13.462;2023-04-01T23:47:31;7.23;;;6.53;;
8462;SDS011;4268;52.506;13.462;2023-04-01T23:49:59;6.90;;;6.00;;
8462;SDS011;4268;52.506;13.462;2023-04-01T23:52:36;5.80;;;5.30;;
